• Join FlightAware (Why Join?)
  • Login
  • US Flag 
Rudolph Flight #1: Arrived! 
06:41AM EST


 

Airport Tracker/Info


-or-


 

Live Flight TrackerFlight Track Log ✈ EJA922 ✈ 18-Nov-2013 ✈ KMDW - KMKE

Flight Track Log - Related Links

Times and Time Zones

All times are in EST time to prevent confusion due to time zone crossing. See the EJA922 flight status page for this flight to view local times or setup timezone preferences in your user account.

Time Position Orientation Groundspeed Altitude Reporting Facility
EST Latitude Longitude Course Direction KTS MPH feet Rate Location/Type
04:23PM 41.8167 -87.8333 243° Southwest 220 253 2,900  Level Chicago TRACON
04:24PM 41.7833 -87.9000 236° Southwest 235 270 3,300 900 Climbing Chicago TRACON
04:25PM 41.7467 -87.9917 242° Southwest 235 270 4,900 1,560 Climbing Chicago Center
04:26PM 41.7106 -88.0703 238° Southwest 242 278 6,800 1,860 Climbing Chicago Center
04:27PM 41.6800 -88.1547 244° Southwest 254 292 8,800 1,920 Climbing Chicago Center
04:28PM 41.5204 -88.5114 243° Southwest  Level Estimated
04:28PM 41.6711 -88.2461 263° West 250 288 10,800  Level Chicago Center
04:29PM 41.6925 -88.3444 286° West 231 266 12,800 2,460 Climbing Chicago Center
04:30PM 41.7133 -88.4325 288° West 246 283 15,900 2,280 Climbing Chicago Center
04:31PM 41.7353 -88.5297 287° West 272 313 17,600 1,980 Climbing Chicago Center
04:32PM 41.7508 -88.6531 280° West 309 356 20,000 2,040 Climbing Chicago Center
04:33PM 41.7514 -88.7556 270° West 315 362 21,900 2,220 Climbing Chicago Center
04:34PM 41.7517 -88.8978 270° West 320 368 24,700 2,280 Climbing Chicago Center
04:35PM 41.7517 -89.0189 270° West 328 377 26,700 1,980 Climbing Chicago Center
04:36PM 41.7511 -89.1458 270° West 341 392 28,800 2,040 Climbing Chicago Center
04:37PM 41.7136 -89.2703 248° West 366 421 31,000 1,500 Climbing Chicago Center
04:38PM 41.6706 -89.3914 245° Southwest 362 417 32,000 660 Climbing Chicago Center
04:39PM 41.6100 -89.5533 243° Southwest 396 456 32,400 600 Climbing Chicago Center
04:40PM 41.5522 -89.7008 242° Southwest 437 503 33,300 720 Climbing Chicago Center
04:41PM 41.4967 -89.8403 242° Southwest 433 498 34,000 300 Climbing Chicago Center
04:42PM 41.4392 -89.9783 241° Southwest 430 495 34,000  Level Chicago Center
04:43PM 41.3828 -90.1133 241° Southwest 424 488 34,000  Level Chicago Center
04:45PM 41.3164 -90.2731 241° Southwest 417 480 34,000  Level Chicago Center
04:46PM 41.2617 -90.4028 241° Southwest 410 472 34,000  Level Chicago Center
04:47PM 41.2064 -90.5331 241° Southwest 406 467 34,000  Level Chicago Center
04:48PM 41.1525 -90.6606 241° Southwest 401 461 34,000  Level Chicago Center
04:49PM 41.0981 -90.7894 241° Southwest 402 463 34,000  Level Chicago Center
04:50PM 41.0433 -90.9172 240° Southwest 400 460 34,000  Level Chicago Center
04:51PM 40.9767 -91.0706 240° Southwest 403 464 34,000  Level Chicago Center
04:52PM 40.9217 -91.1983 240° Southwest 401 461 34,000  Level Chicago Center
04:53PM 40.8697 -91.3206 241° Southwest 404 465 34,000  Level Chicago Center
04:54PM 40.8131 -91.4481 240° Southwest 405 466 34,000  Level Chicago Center
04:55PM 40.7367 -91.5972 236° Southwest 414 476 34,000  Level Chicago Center
04:56PM 40.6664 -91.7161 232° Southwest 417 480 34,000  Level Chicago Center
04:57PM 40.6217 -91.7869 230° Southwest 418 481 34,000  Level Kansas City Center
04:58PM 40.5497 -91.9056 231° Southwest 418 481 34,000  Level Kansas City Center
04:59PM 40.4669 -92.0503 233° Southwest 417 480 34,000  Level Kansas City Center
05:00PM 40.4772 -92.1875 276° West 394 453 34,000  Level Kansas City Center
05:01PM 40.5736 -92.2564 332° Northwest 425 489 34,000  Level Kansas City Center
05:01PM 40.6492 -92.2242 18° North 467 537 34,000  Level Chicago Center
05:02PM 40.7689 -92.1186 34° Northeast 513 590 34,000  Level Chicago Center
05:03PM 40.8894 -92.0167 33° Northeast 518 596 34,000  Level Chicago Center
05:04PM 41.0358 -91.8950 32° Northeast 521 600 34,000  Level Chicago Center
05:05PM 41.1553 -91.7922 33° Northeast 518 596 34,000  Level Chicago Center
05:06PM 41.2758 -91.6894 33° Northeast 516 594 34,000  Level Chicago Center
05:08PM 41.3936 -91.5900 32° Northeast 511 588 34,000  Level Chicago Center
05:09PM 41.5103 -91.4889 33° Northeast 506 582 34,000  Level Chicago Center
05:10PM 41.6500 -91.3667 33° Northeast 505 581 34,000  Level Chicago Center
05:11PM 41.7617 -91.2719 32° Northeast 492 566 34,000  Level Chicago Center
05:12PM 41.8742 -91.1733 33° Northeast 489 563 34,000  Level Chicago Center
05:13PM 41.9881 -91.0756 33° Northeast 490 564 34,000  Level Chicago Center
05:14PM 42.1239 -90.9556 33° Northeast 492 566 34,000  Level Chicago Center
05:15PM 42.2328 -90.8608 33° Northeast 480 552 34,000  Level Chicago Center
05:16PM 42.3428 -90.7631 33° Northeast 479 551 34,000  Level Chicago Center
05:17PM 42.4539 -90.6672 32° Northeast 478 550 34,000  Level Chicago Center
05:18PM 42.5642 -90.5769 31° Northeast 472 543 34,000 -120 Level Chicago Center
05:19PM 42.6978 -90.4683 31° Northeast 472 543 33,800 -360 Descending Chicago Center
05:20PM 42.8117 -90.3769 30° Northeast 477 549 33,300 -2,040 Descending Chicago Center
05:21PM 42.9300 -90.2814 31° Northeast 494 568 29,600 -3,000 Descending Chicago Center
05:22PM 43.0519 -90.1819 31° Northeast 510 587 27,100 -1,260 Descending Chicago Center
05:23PM 43.1714 -90.0792 32° Northeast 472 543 27,000 -60 Descending Chicago Center
05:24PM 43.2747 -89.9933 31° Northeast 440 506 27,000 -540 Level Chicago Center
05:25PM 43.3783 -89.9072 31° Northeast 436 502 25,900 -1,020 Descending Chicago Center
05:26PM 43.4833 -89.7661 44° Northeast 469 540 24,900 -1,560 Descending Chicago Center
05:27PM 43.4889 -89.5828 88° East 494 568 22,700 -2,220 Descending Chicago Center
05:28PM 43.4458 -89.4092 109° East 480 552 20,400 -2,280 Descending Chicago Center
05:29PM 43.3969 -89.2397 112° Southeast 480 552 18,100 -2,040 Descending Chicago Center
05:30PM 43.3494 -89.0764 112° Southeast 467 537 16,200 -2,160 Descending Chicago Center
05:31PM 43.2958 -88.8942 112° Southeast 436 502 13,700 -2,220 Descending Chicago Center
05:32PM 43.2539 -88.7514 112° Southeast 415 478 11,700 -1,800 Descending Chicago Center
05:33PM 43.2147 -88.6186 112° Southeast 391 450 10,100 -780 Descending Chicago Center
05:34PM 43.1781 -88.4942 112° Southeast 367 422 10,100  Level Chicago Center
05:35PM 43.1414 -88.3736 113° Southeast 352 405 10,100 -1,020 Level Chicago Center
05:36PM 43.1025 -88.2436 112° Southeast 314 361 8,100 -1,680 Descending Chicago Center
05:38PM 43.0564 -88.1458 123° Southeast 308 354 6,700 -1,380 Descending Chicago Center
05:39PM 43.0072 -88.0661 130° Southeast 283 326 5,300 -1,680 Descending Chicago Center
05:40PM 42.9508 -88.0294 155° Southeast 250 288 3,300 -1,080 Descending Chicago Center
05:41PM 42.8933 -88.0161 170° South 223 257 3,100 -240 Descending Chicago Center
05:42PM 42.8383 -87.9994 167° South 211 243 2,900 -300 Descending Chicago Center
05:43PM 42.8289 -87.9250 100° East 203 234 2,500 -420 Descending Chicago Center
05:44PM 42.8597 -87.9103 19° North 155 178 2,100 -540 Descending Chicago Center
05:45PM 42.8972 -87.9033 North 142 163 1,400 -720 Descending Chicago Center
05:47PM 42.9333 -87.8833 124° Southeast  Level FlightAware Approximate
05:54PM 42.9469 -87.8971 124° Southeast  Level Estimated